Time;durP1;ratioP1;P1;durP2;ratioP2;P2;SDS_P1;SDS_P2;PMS_P1;PMS_P2;Temp;Humidity;BMP_temperature;BMP_pressure;BME280_temperature;BME280_humidity;BME280_pressure;Samples;Min_cycle;Max_cycle;Signal;HPM_P1;HPM_P2
2023/06/02 00:01:01;;;;;;;8.07;4.93;;;;;;;;;;7378701;19;20027;-75
2023/06/02 00:03:36;;;;;;;8.75;5.47;;;;;;;;;;7372150;19;20017;-74
2023/06/02 00:06:08;;;;;;;9.77;5.32;;;;;;;;;;7367788;19;20014;-75
2023/06/02 00:08:36;;;;;;;8.98;5.38;;;;;;;;;;7367372;19;20560;-74
2023/06/02 00:11:01;;;;;;;9.13;4.75;;;;;;;;;;7369832;19;20006;-75
2023/06/02 00:13:27;;;;;;;10.57;5.32;;;;;;;;;;7390277;19;20114;-75
2023/06/02 00:15:53;;;;;;;9.82;5.28;;;;;;;;;;7368121;19;20006;-75
2023/06/02 00:18:25;;;;;;;9.95;5.22;;;;;;;;;;7365974;19;20081;-75
2023/06/02 00:20:51;;;;;;;9.32;5.45;;;;;;;;;;7368046;19;20097;-75
2023/06/02 00:23:16;;;;;;;11.20;5.22;;;;;;;;;;7368115;19;25646;-75
2023/06/02 00:25:41;;;;;;;9.45;5.65;;;;;;;;;;7389951;19;20018;-75
2023/06/02 00:28:07;;;;;;;10.02;4.70;;;;;;;;;;7366377;19;20011;-74
2023/06/02 00:30:36;;;;;;;9.20;5.10;;;;;;;;;;7367981;19;20070;-75
2023/06/02 00:33:01;;;;;;;9.30;5.10;;;;;;;;;;7369053;19;20003;-75
2023/06/02 00:35:27;;;;;;;10.10;5.07;;;;;;;;;;7367508;19;20014;-74
2023/06/02 00:37:53;;;;;;;9.43;5.45;;;;;;;;;;7386887;19;19998;-74
2023/06/02 00:40:19;;;;;;;9.75;5.65;;;;;;;;;;7367426;19;20506;-74
2023/06/02 00:42:45;;;;;;;8.88;5.63;;;;;;;;;;7366889;19;20029;-74
2023/06/02 00:45:10;;;;;;;10.57;5.47;;;;;;;;;;7367614;19;20481;-74
2023/06/02 00:47:36;;;;;;;10.35;4.80;;;;;;;;;;7365258;19;20038;-74
2023/06/02 00:50:01;;;;;;;12.25;5.05;;;;;;;;;;7365846;19;20018;-73
2023/06/02 00:52:28;;;;;;;9.85;4.75;;;;;;;;;;7394890;19;21820;-74
2023/06/02 00:54:53;;;;;;;8.30;4.93;;;;;;;;;;7372991;19;20366;-74
2023/06/02 00:57:19;;;;;;;10.52;5.47;;;;;;;;;;7373191;19;20014;-74
2023/06/02 00:59:45;;;;;;;8.45;4.90;;;;;;;;;;7373367;19;20121;-74
2023/06/02 01:02:10;;;;;;;7.35;4.70;;;;;;;;;;7371367;19;20488;-74
2023/06/02 01:04:40;;;;;;;9.60;5.18;;;;;;;;;;7396472;19;20025;-74
2023/06/02 01:07:07;;;;;;;7.85;4.70;;;;;;;;;;7372388;19;20385;-74
2023/06/02 01:09:33;;;;;;;10.48;5.13;;;;;;;;;;7372375;19;20047;-74
2023/06/02 01:11:59;;;;;;;9.15;5.57;;;;;;;;;;7373122;19;20502;-74
2023/06/02 01:14:24;;;;;;;8.23;5.13;;;;;;;;;;7373566;19;20015;-74
2023/06/02 01:16:51;;;;;;;9.75;5.22;;;;;;;;;;7393405;19;20481;-74
2023/06/02 01:19:20;;;;;;;8.25;5.03;;;;;;;;;;7372440;19;20412;-74
2023/06/02 01:21:57;;;;;;;8.02;5.38;;;;;;;;;;7371930;19;20010;-75
2023/06/02 01:24:30;;;;;;;7.53;5.10;;;;;;;;;;7373555;19;20473;-75
2023/06/02 01:26:56;;;;;;;10.60;5.13;;;;;;;;;;7370451;19;20025;-75
2023/06/02 01:29:21;;;;;;;9.60;5.70;;;;;;;;;;7371881;19;20670;-74
2023/06/02 01:31:52;;;;;;;13.68;6.47;;;;;;;;;;7394975;19;20006;-75
2023/06/02 01:34:28;;;;;;;12.07;5.97;;;;;;;;;;7370044;19;20019;-75
2023/06/02 01:36:58;;;;;;;10.38;6.22;;;;;;;;;;7371923;19;20402;-75
2023/06/02 01:39:27;;;;;;;10.40;5.50;;;;;;;;;;7369376;19;20389;-74
2023/06/02 01:41:54;;;;;;;13.05;5.90;;;;;;;;;;7372876;19;20260;-74
2023/06/02 01:44:21;;;;;;;11.82;5.10;;;;;;;;;;7372524;19;20011;-74
2023/06/02 01:46:48;;;;;;;9.73;5.68;;;;;;;;;;7393460;19;20349;-74
2023/06/02 01:49:15;;;;;;;10.15;5.70;;;;;;;;;;7371408;19;20011;-74
2023/06/02 01:51:41;;;;;;;12.38;6.13;;;;;;;;;;7371610;19;20058;-74
2023/06/02 01:54:06;;;;;;;12.73;6.60;;;;;;;;;;7376632;19;20057;-75
2023/06/02 01:56:31;;;;;;;14.52;5.72;;;;;;;;;;7378310;19;20010;-75
2023/06/02 01:58:57;;;;;;;13.05;6.50;;;;;;;;;;7389830;19;20007;-76
2023/06/02 02:01:23;;;;;;;11.68;5.38;;;;;;;;;;7389687;19;19998;-75
2023/06/02 02:03:50;;;;;;;13.63;6.05;;;;;;;;;;7365591;19;20006;-75
2023/06/02 02:06:15;;;;;;;10.50;6.18;;;;;;;;;;7371820;19;20666;-75
2023/06/02 02:08:41;;;;;;;12.55;6.25;;;;;;;;;;7373170;19;20019;-74
2023/06/02 02:11:06;;;;;;;13.85;5.75;;;;;;;;;;7373578;19;20062;-75
2023/06/02 02:13:31;;;;;;;9.77;5.55;;;;;;;;;;7397589;19;20016;-76
2023/06/02 02:15:57;;;;;;;12.00;5.53;;;;;;;;;;7384666;19;20002;-75
2023/06/02 02:18:24;;;;;;;8.90;5.35;;;;;;;;;;7386008;19;20046;-76
2023/06/02 02:20:50;;;;;;;9.35;5.28;;;;;;;;;;7390403;19;20002;-75
2023/06/02 02:23:15;;;;;;;7.80;5.15;;;;;;;;;;7391235;19;20460;-76
2023/06/02 02:25:41;;;;;;;8.95;4.80;;;;;;;;;;7411735;19;19998;-75
2023/06/02 02:28:06;;;;;;;9.95;5.32;;;;;;;;;;7386472;19;20065;-75
2023/06/02 02:30:31;;;;;;;7.68;5.00;;;;;;;;;;7389477;19;20062;-76
2023/06/02 02:32:57;;;;;;;8.60;5.32;;;;;;;;;;7387532;19;19998;-76
2023/06/02 02:35:22;;;;;;;8.60;5.13;;;;;;;;;;7375795;19;20045;-76
2023/06/02 02:37:47;;;;;;;9.60;5.72;;;;;;;;;;7395535;19;20006;-75
2023/06/02 02:40:14;;;;;;;9.13;5.63;;;;;;;;;;7371185;19;20499;-75
2023/06/02 02:42:40;;;;;;;9.45;5.50;;;;;;;;;;7371852;19;20037;-74
2023/06/02 02:45:07;;;;;;;9.25;5.70;;;;;;;;;;7373006;19;20014;-74
2023/06/02 02:47:32;;;;;;;10.50;5.88;;;;;;;;;;7372191;19;20011;-74
2023/06/02 02:49:57;;;;;;;9.70;5.45;;;;;;;;;;7379106;19;20062;-74
2023/06/02 02:52:23;;;;;;;11.07;6.18;;;;;;;;;;7388475;19;20014;-74
2023/06/02 02:54:49;;;;;;;11.13;5.75;;;;;;;;;;7370346;19;20093;-75
2023/06/02 02:57:15;;;;;;;12.35;5.50;;;;;;;;;;7368536;19;20423;-75
2023/06/02 02:59:40;;;;;;;9.18;5.50;;;;;;;;;;7368942;19;20036;-74
2023/06/02 03:02:06;;;;;;;9.45;5.35;;;;;;;;;;7370326;19;20011;-74
2023/06/02 03:04:32;;;;;;;10.05;5.43;;;;;;;;;;7391845;19;19999;-75
2023/06/02 03:06:58;;;;;;;10.52;5.78;;;;;;;;;;7368593;19;20163;-75
2023/06/02 03:09:23;;;;;;;9.27;5.63;;;;;;;;;;7369920;19;20014;-75
2023/06/02 03:11:49;;;;;;;9.63;5.70;;;;;;;;;;7371171;19;20732;-74
2023/06/02 03:14:14;;;;;;;9.90;5.60;;;;;;;;;;7368841;19;20441;-75
2023/06/02 03:16:44;;;;;;;12.43;6.03;;;;;;;;;;7389500;19;20018;-75
2023/06/02 03:19:12;;;;;;;9.60;5.78;;;;;;;;;;7367049;19;20039;-74
2023/06/02 03:21:41;;;;;;;11.27;5.57;;;;;;;;;;7371446;19;20572;-75
2023/06/02 03:24:17;;;;;;;13.20;5.80;;;;;;;;;;7367135;19;20725;-75
2023/06/02 03:26:43;;;;;;;9.18;5.60;;;;;;;;;;7366477;19;20014;-75
2023/06/02 03:29:10;;;;;;;10.05;5.65;;;;;;;;;;7363946;19;20073;-75
2023/06/02 03:31:36;;;;;;;12.18;6.53;;;;;;;;;;7389711;19;20014;-75
2023/06/02 03:34:02;;;;;;;10.25;5.72;;;;;;;;;;7368227;19;20122;-75
2023/06/02 03:36:28;;;;;;;11.63;5.85;;;;;;;;;;7367515;19;20022;-75
2023/06/02 03:38:54;;;;;;;11.20;6.07;;;;;;;;;;7367649;19;20002;-75
2023/06/02 03:41:20;;;;;;;10.48;5.90;;;;;;;;;;7369191;19;20447;-75
2023/06/02 03:43:46;;;;;;;11.40;6.38;;;;;;;;;;7391177;19;20003;-75
2023/06/02 03:46:11;;;;;;;9.00;6.13;;;;;;;;;;7370827;19;20500;-75
2023/06/02 03:48:37;;;;;;;13.63;6.55;;;;;;;;;;7373867;19;20184;-74
2023/06/02 03:51:03;;;;;;;10.15;5.97;;;;;;;;;;7382694;19;20094;-75
2023/06/02 03:53:28;;;;;;;12.02;6.28;;;;;;;;;;7374443;19;20110;-74
2023/06/02 03:55:54;;;;;;;13.88;6.05;;;;;;;;;;7410033;19;20952;-75
2023/06/02 03:58:19;;;;;;;10.02;6.18;;;;;;;;;;7385138;19;20025;-74
2023/06/02 04:00:46;;;;;;;9.82;5.80;;;;;;;;;;7385885;19;20019;-74
2023/06/02 04:03:11;;;;;;;13.85;5.43;;;;;;;;;;7379657;19;20081;-75
2023/06/02 04:05:37;;;;;;;12.45;6.20;;;;;;;;;;7376211;19;20018;-75
2023/06/02 04:08:02;;;;;;;11.35;5.75;;;;;;;;;;7378884;19;20369;-75
2023/06/02 04:10:30;;;;;;;14.25;6.07;;;;;;;;;;7398627;19;19995;-76
2023/06/02 04:12:55;;;;;;;11.40;5.70;;;;;;;;;;7377691;19;20006;-74
2023/06/02 04:15:21;;;;;;;10.93;5.22;;;;;;;;;;7379478;19;20019;-75
2023/06/02 04:17:46;;;;;;;10.95;5.30;;;;;;;;;;7375121;19;20011;-75
2023/06/02 04:20:12;;;;;;;9.50;5.18;;;;;;;;;;7375655;19;19998;-76
2023/06/02 04:22:37;;;;;;;10.40;5.60;;;;;;;;;;7397384;19;20010;-75
2023/06/02 04:25:03;;;;;;;11.43;4.80;;;;;;;;;;7370215;19;20003;-75
2023/06/02 04:27:29;;;;;;;11.90;5.07;;;;;;;;;;7364883;19;20022;-75
2023/06/02 04:29:54;;;;;;;10.25;5.80;;;;;;;;;;7366096;19;19998;-75
2023/06/02 04:32:20;;;;;;;10.40;5.00;;;;;;;;;;7364216;19;20010;-74
2023/06/02 04:34:45;;;;;;;9.07;5.15;;;;;;;;;;7382047;19;20003;-75
2023/06/02 04:37:10;;;;;;;12.30;5.30;;;;;;;;;;7361796;19;20002;-75
2023/06/02 04:39:36;;;;;;;9.27;5.38;;;;;;;;;;7360674;19;20090;-75
2023/06/02 04:42:03;;;;;;;11.20;5.38;;;;;;;;;;7363592;19;20028;-62
2023/06/02 04:44:29;;;;;;;14.05;5.60;;;;;;;;;;7364596;19;20010;-63
2023/06/02 04:46:54;;;;;;;13.25;5.93;;;;;;;;;;7384567;19;20002;-64
2023/06/02 04:49:19;;;;;;;13.05;5.72;;;;;;;;;;7365446;19;20014;-62
2023/06/02 04:51:45;;;;;;;14.70;5.78;;;;;;;;;;7366628;19;20014;-62
2023/06/02 04:54:10;;;;;;;18.08;5.78;;;;;;;;;;7367006;19;20086;-63
2023/06/02 04:56:39;;;;;;;12.48;5.13;;;;;;;;;;7365736;19;20699;-63
2023/06/02 04:59:04;;;;;;;12.15;5.53;;;;;;;;;;7364763;19;20019;-64
2023/06/02 05:01:29;;;;;;;11.23;5.38;;;;;;;;;;7383838;19;20002;-63
2023/06/02 05:03:55;;;;;;;11.95;5.40;;;;;;;;;;7366411;19;20007;-62
2023/06/02 05:06:20;;;;;;;10.20;5.72;;;;;;;;;;7373255;19;20006;-64
2023/06/02 05:08:45;;;;;;;11.43;5.50;;;;;;;;;;7365265;19;20011;-63
2023/06/02 05:11:11;;;;;;;11.57;5.43;;;;;;;;;;7366252;19;20453;-63
2023/06/02 05:13:37;;;;;;;11.07;5.22;;;;;;;;;;7386509;19;20001;-62
2023/06/02 05:16:03;;;;;;;11.05;5.10;;;;;;;;;;7367400;19;20089;-62
2023/06/02 05:18:28;;;;;;;11.43;5.20;;;;;;;;;;7363078;19;20375;-64
2023/06/02 05:20:54;;;;;;;10.75;4.82;;;;;;;;;;7367149;19;20014;-63
2023/06/02 05:23:19;;;;;;;10.15;4.75;;;;;;;;;;7366765;19;20010;-65
2023/06/02 05:25:51;;;;;;;9.15;4.85;;;;;;;;;;7388337;19;20007;-63
2023/06/02 05:28:17;;;;;;;10.98;5.45;;;;;;;;;;7363550;19;20438;-64
2023/06/02 05:30:42;;;;;;;9.70;5.13;;;;;;;;;;7366275;19;20010;-64
2023/06/02 05:33:08;;;;;;;11.13;4.95;;;;;;;;;;7365606;19;20569;-66
2023/06/02 05:35:33;;;;;;;12.23;4.82;;;;;;;;;;7366591;19;20018;-64
2023/06/02 05:37:58;;;;;;;17.40;5.50;;;;;;;;;;7369406;19;20006;-64
2023/06/02 05:40:24;;;;;;;9.20;4.80;;;;;;;;;;7398352;19;20060;-64
2023/06/02 05:42:49;;;;;;;9.70;4.88;;;;;;;;;;7376478;19;20492;-64
2023/06/02 05:45:15;;;;;;;9.70;4.15;;;;;;;;;;7377859;19;20521;-64
2023/06/02 05:47:40;;;;;;;7.07;4.25;;;;;;;;;;7372659;19;20019;-64
2023/06/02 05:50:06;;;;;;;10.07;4.32;;;;;;;;;;7370665;19;20002;-64
2023/06/02 05:52:31;;;;;;;10.63;4.85;;;;;;;;;;7395018;19;20078;-64
2023/06/02 05:54:56;;;;;;;15.68;5.15;;;;;;;;;;7372694;19;20655;-63
2023/06/02 05:57:21;;;;;;;14.45;5.30;;;;;;;;;;7377249;19;20102;-75
2023/06/02 05:59:47;;;;;;;7.78;3.50;;;;;;;;;;7379483;19;20098;-75
2023/06/02 06:02:12;;;;;;;8.30;3.67;;;;;;;;;;7379374;19;20003;-75
2023/06/02 06:04:38;;;;;;;8.15;4.03;;;;;;;;;;7404127;19;20011;-75
2023/06/02 06:07:04;;;;;;;10.02;4.72;;;;;;;;;;7397479;19;20015;-74
2023/06/02 06:09:29;;;;;;;9.57;4.72;;;;;;;;;;7383260;19;20031;-74
2023/06/02 06:11:55;;;;;;;12.50;5.03;;;;;;;;;;7383091;19;20048;-74
2023/06/02 06:14:20;;;;;;;10.27;3.83;;;;;;;;;;7385791;19;20003;-74
2023/06/02 06:16:45;;;;;;;11.25;4.28;;;;;;;;;;7406305;19;20003;-74
2023/06/02 06:19:11;;;;;;;8.68;4.93;;;;;;;;;;7383665;19;20485;-74
2023/06/02 06:21:37;;;;;;;9.57;3.83;;;;;;;;;;7382890;19;19999;-74
2023/06/02 06:24:06;;;;;;;8.30;4.63;;;;;;;;;;7383136;19;20019;-75
2023/06/02 06:26:32;;;;;;;14.23;4.68;;;;;;;;;;7379841;19;20014;-75
2023/06/02 06:28:57;;;;;;;8.10;3.88;;;;;;;;;;7392705;19;20007;-74
2023/06/02 06:31:23;;;;;;;9.57;4.40;;;;;;;;;;7396207;19;20005;-74
2023/06/02 06:33:49;;;;;;;9.15;4.38;;;;;;;;;;7380274;19;20550;-74
2023/06/02 06:36:14;;;;;;;8.60;4.40;;;;;;;;;;7379569;19;20048;-74
2023/06/02 06:38:41;;;;;;;10.73;4.50;;;;;;;;;;7378647;19;20117;-74
2023/06/02 06:41:06;;;;;;;11.50;4.30;;;;;;;;;;7377894;19;20385;-74
2023/06/02 06:43:31;;;;;;;8.55;4.55;;;;;;;;;;7399049;19;20038;-74
2023/06/02 06:45:59;;;;;;;12.63;4.28;;;;;;;;;;7378209;19;20007;-75
2023/06/02 06:48:24;;;;;;;7.75;4.00;;;;;;;;;;7375844;19;20003;-73
2023/06/02 06:50:49;;;;;;;8.45;3.88;;;;;;;;;;7376048;19;20003;-74
2023/06/02 06:53:15;;;;;;;7.38;4.03;;;;;;;;;;7377410;19;20028;-75
2023/06/02 06:55:40;;;;;;;10.90;4.43;;;;;;;;;;7400647;19;20014;-76
2023/06/02 06:58:05;;;;;;;10.55;4.57;;;;;;;;;;7376286;19;20387;-74
2023/06/02 07:00:31;;;;;;;7.82;4.07;;;;;;;;;;7378100;19;20011;-74
2023/06/02 07:02:57;;;;;;;9.30;3.72;;;;;;;;;;7376261;19;20423;-74
2023/06/02 07:05:22;;;;;;;11.25;4.15;;;;;;;;;;7376449;19;20002;-74
2023/06/02 07:07:48;;;;;;;11.02;4.03;;;;;;;;;;7398221;19;20077;-73
2023/06/02 07:10:14;;;;;;;10.27;3.97;;;;;;;;;;7377058;19;20736;-74
2023/06/02 07:12:40;;;;;;;10.90;4.55;;;;;;;;;;7379216;19;20014;-74
2023/06/02 07:15:06;;;;;;;12.02;4.90;;;;;;;;;;7384855;19;20015;-75
2023/06/02 07:17:31;;;;;;;9.30;4.13;;;;;;;;;;7383388;19;20007;-74
2023/06/02 07:19:56;;;;;;;12.30;4.47;;;;;;;;;;7403693;19;20006;-74
2023/06/02 07:22:22;;;;;;;9.43;4.07;;;;;;;;;;7386690;19;20445;-74
2023/06/02 07:24:47;;;;;;;11.25;4.57;;;;;;;;;;7382119;19;20361;-74
2023/06/02 07:27:13;;;;;;;12.63;4.18;;;;;;;;;;7381924;19;20054;-74
2023/06/02 07:29:39;;;;;;;14.93;4.22;;;;;;;;;;7386016;19;20070;-75
2023/06/02 07:32:05;;;;;;;9.30;4.05;;;;;;;;;;7393854;19;20010;-75
2023/06/02 07:34:30;;;;;;;9.32;4.00;;;;;;;;;;7407219;19;20005;-75
2023/06/02 07:36:55;;;;;;;9.90;4.18;;;;;;;;;;7381560;19;20101;-75
2023/06/02 07:39:21;;;;;;;7.00;3.45;;;;;;;;;;7381944;19;20018;-75
2023/06/02 07:41:46;;;;;;;9.00;4.13;;;;;;;;;;7383342;19;20035;-75
2023/06/02 07:44:11;;;;;;;10.05;3.72;;;;;;;;;;7380075;19;20027;-75
2023/06/02 07:46:37;;;;;;;8.23;4.15;;;;;;;;;;7399276;19;20007;-74
2023/06/02 07:49:02;;;;;;;10.88;3.70;;;;;;;;;;7374350;19;20015;-74
2023/06/02 07:51:28;;;;;;;9.00;3.60;;;;;;;;;;7372254;19;20066;-74
2023/06/02 07:53:53;;;;;;;8.60;3.58;;;;;;;;;;7377274;19;20031;-74
2023/06/02 07:56:18;;;;;;;8.38;3.85;;;;;;;;;;7377412;19;20087;-74
2023/06/02 07:58:47;;;;;;;9.90;4.00;;;;;;;;;;7398942;19;20333;-74
2023/06/02 08:01:13;;;;;;;10.45;4.03;;;;;;;;;;7372839;19;20373;-74
2023/06/02 08:03:39;;;;;;;9.45;3.80;;;;;;;;;;7374328;19;20002;-73
2023/06/02 08:06:05;;;;;;;8.38;3.42;;;;;;;;;;7377896;19;20375;-74
2023/06/02 08:08:30;;;;;;;8.63;4.28;;;;;;;;;;7374570;19;20006;-74
2023/06/02 08:10:57;;;;;;;8.70;3.72;;;;;;;;;;7398804;19;20062;-73
2023/06/02 08:13:22;;;;;;;9.05;3.88;;;;;;;;;;7377405;19;20006;-74
2023/06/02 08:15:48;;;;;;;10.45;3.70;;;;;;;;;;7374537;19;20010;-74
2023/06/02 08:18:16;;;;;;;9.82;4.85;;;;;;;;;;7373892;19;20006;-74
2023/06/02 08:20:45;;;;;;;11.80;3.90;;;;;;;;;;7374875;19;20018;-74
2023/06/02 08:23:11;;;;;;;11.07;3.97;;;;;;;;;;7373764;19;20002;-74
2023/06/02 08:25:38;;;;;;;10.55;3.58;;;;;;;;;;7396643;19;20460;-73
2023/06/02 08:28:07;;;;;;;7.45;3.60;;;;;;;;;;7372225;19;20010;-74
2023/06/02 08:30:36;;;;;;;7.82;3.70;;;;;;;;;;7373875;19;20010;-74
2023/06/02 08:33:03;;;;;;;8.60;3.53;;;;;;;;;;7375493;19;20094;-74
2023/06/02 08:35:36;;;;;;;8.48;3.60;;;;;;;;;;7374691;19;20396;-73
2023/06/02 08:38:03;;;;;;;12.05;4.15;;;;;;;;;;7372559;19;20041;-73
2023/06/02 08:40:35;;;;;;;9.50;3.92;;;;;;;;;;7404236;19;19995;-74
2023/06/02 08:43:03;;;;;;;9.77;3.72;;;;;;;;;;7379164;19;20035;-75
2023/06/02 08:45:31;;;;;;;11.45;4.15;;;;;;;;;;7374057;19;20070;-73
2023/06/02 08:47:57;;;;;;;9.48;4.05;;;;;;;;;;7370059;19;20023;-73
2023/06/02 08:50:26;;;;;;;7.82;4.10;;;;;;;;;;7369741;19;20017;-73
2023/06/02 08:52:55;;;;;;;8.52;3.65;;;;;;;;;;7391408;19;20025;-73
2023/06/02 08:55:21;;;;;;;8.50;3.28;;;;;;;;;;7371677;19;20029;-73
2023/06/02 08:57:46;;;;;;;8.55;3.88;;;;;;;;;;7368327;19;20018;-73
2023/06/02 09:00:13;;;;;;;8.07;3.60;;;;;;;;;;7370605;19;20019;-73
2023/06/02 09:02:39;;;;;;;10.38;3.47;;;;;;;;;;7371164;19;20007;-74
2023/06/02 09:05:06;;;;;;;12.32;3.72;;;;;;;;;;7369890;19;20006;-73
2023/06/02 09:07:32;;;;;;;9.10;3.40;;;;;;;;;;7392717;19;20915;-74
2023/06/02 09:09:57;;;;;;;6.55;2.97;;;;;;;;;;7370805;19;20007;-74
2023/06/02 09:12:23;;;;;;;13.90;3.65;;;;;;;;;;7378165;19;20003;-73
2023/06/02 09:15:07;;;;;;;7.85;3.42;;;;;;;;;;7380373;19;20010;-73
2023/06/02 09:17:32;;;;;;;11.32;4.10;;;;;;;;;;7378780;19;20694;-74
2023/06/02 09:20:08;;;;;;;7.82;3.92;;;;;;;;;;7386113;19;19998;-74
2023/06/02 09:22:33;;;;;;;8.52;3.72;;;;;;;;;;7404226;19;20339;-73
2023/06/02 09:24:59;;;;;;;6.00;2.80;;;;;;;;;;7386246;19;20105;-73
2023/06/02 09:27:25;;;;;;;9.95;3.53;;;;;;;;;;7383405;19;20042;-73
2023/06/02 09:29:59;;;;;;;9.65;4.68;;;;;;;;;;7374893;19;20011;-73
2023/06/02 09:32:24;;;;;;;6.65;2.90;;;;;;;;;;7376031;19;20361;-73
2023/06/02 09:34:50;;;;;;;6.60;2.88;;;;;;;;;;7399177;19;20002;-72
2023/06/02 09:37:18;;;;;;;10.32;3.80;;;;;;;;;;7374797;19;20014;-73
2023/06/02 09:39:56;;;;;;;8.77;3.38;;;;;;;;;;7374243;19;20010;-74
2023/06/02 09:42:21;;;;;;;7.35;3.67;;;;;;;;;;7374454;19;20050;-74
2023/06/02 09:45:06;;;;;;;6.38;3.63;;;;;;;;;;7379832;19;20003;-74
2023/06/02 09:47:43;;;;;;;9.45;4.00;;;;;;;;;;7376016;19;19998;-73
2023/06/02 09:50:09;;;;;;;8.68;3.72;;;;;;;;;;7376296;19;20015;-74
2023/06/02 09:52:35;;;;;;;7.90;3.53;;;;;;;;;;7399618;19;20010;-74
2023/06/02 09:55:00;;;;;;;12.15;3.78;;;;;;;;;;7379035;19;20017;-74
2023/06/02 09:57:26;;;;;;;9.13;3.70;;;;;;;;;;7377951;19;20342;-74
2023/06/02 09:59:51;;;;;;;8.82;3.60;;;;;;;;;;7374130;19;20015;-74
2023/06/02 10:02:17;;;;;;;5.93;3.40;;;;;;;;;;7375187;19;20020;-74
2023/06/02 10:04:44;;;;;;;8.57;3.15;;;;;;;;;;7397871;19;20006;-74
2023/06/02 10:07:27;;;;;;;10.90;3.60;;;;;;;;;;7373849;19;20015;-74
2023/06/02 10:10:10;;;;;;;6.68;3.10;;;;;;;;;;7375428;19;20037;-74
2023/06/02 10:12:42;;;;;;;8.68;3.70;;;;;;;;;;7376788;19;20021;-74
2023/06/02 10:15:28;;;;;;;8.13;3.70;;;;;;;;;;7376278;19;20003;-74
2023/06/02 10:18:21;;;;;;;8.70;3.10;;;;;;;;;;7376144;19;20011;-74
2023/06/02 10:21:06;;;;;;;9.18;3.05;;;;;;;;;;7386627;19;20579;-74
2023/06/02 10:23:40;;;;;;;7.60;3.13;;;;;;;;;;7375636;19;20078;-74
2023/06/02 10:26:30;;;;;;;9.07;3.35;;;;;;;;;;7380445;19;20041;-74
2023/06/02 10:28:59;;;;;;;7.22;3.00;;;;;;;;;;7398121;19;20115;-74
2023/06/02 10:31:30;;;;;;;10.43;3.03;;;;;;;;;;7376415;19;20079;-73
2023/06/02 10:33:58;;;;;;;7.85;3.25;;;;;;;;;;7376921;19;20361;-75
2023/06/02 10:36:24;;;;;;;6.05;2.70;;;;;;;;;;7377262;19;20095;-74
2023/06/02 10:38:50;;;;;;;10.32;3.65;;;;;;;;;;7375068;19;20378;-74
2023/06/02 10:41:21;;;;;;;8.73;3.17;;;;;;;;;;7374033;19;20021;-74
2023/06/02 10:44:25;;;;;;;6.53;3.10;;;;;;;;;;7386808;19;20086;-74
2023/06/02 10:47:18;;;;;;;7.80;2.50;;;;;;;;;;7373028;19;20476;-75
2023/06/02 10:50:11;;;;;;;6.55;2.70;;;;;;;;;;7373404;19;20073;-75
2023/06/02 10:52:58;;;;;;;5.00;2.65;;;;;;;;;;7374919;19;20473;-75
2023/06/02 10:55:24;;;;;;;7.80;3.10;;;;;;;;;;7375246;19;20007;-75
2023/06/02 10:58:03;;;;;;;8.35;2.63;;;;;;;;;;7370599;19;20034;-75
2023/06/02 11:00:43;;;;;;;10.73;2.72;;;;;;;;;;7372362;19;20014;-75
2023/06/02 11:03:17;;;;;;;5.70;2.58;;;;;;;;;;7373317;19;20014;-74
2023/06/02 11:05:44;;;;;;;5.30;2.13;;;;;;;;;;7373908;19;20011;-75
2023/06/02 11:08:10;;;;;;;8.52;2.90;;;;;;;;;;7371292;19;20003;-75
2023/06/02 11:10:56;;;;;;;12.60;3.20;;;;;;;;;;7395603;19;20003;-75
2023/06/02 11:13:23;;;;;;;5.30;2.95;;;;;;;;;;7374386;19;20003;-75
2023/06/02 11:15:58;;;;;;;8.93;2.92;;;;;;;;;;7374727;19;20005;-74
2023/06/02 11:18:23;;;;;;;6.78;3.10;;;;;;;;;;7377478;19;20007;-75
2023/06/02 11:20:56;;;;;;;7.35;2.83;;;;;;;;;;7383644;19;20115;-75
2023/06/02 11:23:22;;;;;;;6.55;2.58;;;;;;;;;;7385377;19;20086;-75
2023/06/02 11:25:49;;;;;;;6.70;2.72;;;;;;;;;;7397436;19;20010;-74
2023/06/02 11:28:28;;;;;;;6.68;2.90;;;;;;;;;;7368203;19;20393;-75
2023/06/02 11:31:17;;;;;;;6.10;2.58;;;;;;;;;;7370398;19;20435;-75
2023/06/02 11:33:48;;;;;;;7.28;2.75;;;;;;;;;;7373943;19;20773;-74
2023/06/02 11:36:15;;;;;;;6.45;2.63;;;;;;;;;;7374279;19;20419;-74
2023/06/02 11:38:41;;;;;;;8.40;2.70;;;;;;;;;;7373429;19;20018;-75
2023/06/02 11:41:12;;;;;;;8.90;2.70;;;;;;;;;;7372696;19;20388;-75
2023/06/02 11:43:38;;;;;;;8.27;2.90;;;;;;;;;;7392238;19;20026;-74
2023/06/02 11:46:15;;;;;;;6.50;2.78;;;;;;;;;;7369844;19;20093;-69
2023/06/02 11:48:43;;;;;;;9.07;3.00;;;;;;;;;;7372056;19;20021;-77
2023/06/02 11:51:10;;;;;;;5.88;2.60;;;;;;;;;;7380030;19;20027;-76
2023/06/02 11:53:38;;;;;;;5.68;2.50;;;;;;;;;;7389340;19;20019;-76
2023/06/02 11:56:06;;;;;;;5.43;2.47;;;;;;;;;;7377906;19;20100;-78
2023/06/02 11:58:40;;;;;;;7.18;2.65;;;;;;;;;;7396445;19;20007;-79
2023/06/02 12:01:08;;;;;;;6.63;2.60;;;;;;;;;;7377370;19;20007;-80
2023/06/02 12:03:33;;;;;;;8.82;2.80;;;;;;;;;;7379326;19;20007;-79
2023/06/02 12:06:15;;;;;;;11.77;2.88;;;;;;;;;;7406475;19;20005;-78
2023/06/02 12:08:41;;;;;;;7.32;2.67;;;;;;;;;;7402209;19;20003;-76
2023/06/02 12:11:23;;;;;;;7.20;2.90;;;;;;;;;;7389035;19;20035;-74
2023/06/02 12:14:04;;;;;;;8.98;2.92;;;;;;;;;;7391397;19;20427;-74
2023/06/02 12:16:30;;;;;;;8.48;2.58;;;;;;;;;;7370231;19;20034;-74
2023/06/02 12:19:11;;;;;;;10.25;2.70;;;;;;;;;;7367063;19;20014;-74
2023/06/02 12:21:39;;;;;;;7.03;2.40;;;;;;;;;;7365979;19;20006;-74
2023/06/02 12:24:04;;;;;;;7.70;2.85;;;;;;;;;;7366529;19;20007;-74
2023/06/02 12:26:45;;;;;;;7.38;2.47;;;;;;;;;;7367161;19;20038;-74
2023/06/02 12:29:11;;;;;;;11.07;2.80;;;;;;;;;;7363632;19;20018;-74
2023/06/02 12:31:38;;;;;;;4.53;2.42;;;;;;;;;;7392742;19;20003;-74
2023/06/02 12:34:06;;;;;;;5.35;2.53;;;;;;;;;;7373041;19;20014;-74
2023/06/02 12:36:31;;;;;;;9.70;3.40;;;;;;;;;;7375055;19;20025;-74
2023/06/02 12:38:59;;;;;;;7.63;3.05;;;;;;;;;;7374764;19;20006;-74
2023/06/02 12:41:25;;;;;;;8.40;3.00;;;;;;;;;;7376692;19;20003;-74
2023/06/02 12:43:50;;;;;;;6.93;2.75;;;;;;;;;;7395111;19;20027;-75
2023/06/02 12:46:16;;;;;;;8.23;2.67;;;;;;;;;;7376981;19;20011;-75
2023/06/02 12:48:42;;;;;;;7.60;2.95;;;;;;;;;;7376001;19;20010;-75
2023/06/02 12:51:08;;;;;;;9.18;2.80;;;;;;;;;;7375325;19;20477;-75
2023/06/02 12:53:34;;;;;;;5.95;2.78;;;;;;;;;;7371639;19;20015;-76
2023/06/02 12:56:00;;;;;;;8.48;2.90;;;;;;;;;;7372357;19;20031;-75
2023/06/02 12:58:25;;;;;;;9.50;3.15;;;;;;;;;;7395055;19;20018;-75
2023/06/02 13:00:51;;;;;;;8.57;2.83;;;;;;;;;;7375959;19;20731;-76
2023/06/02 13:03:16;;;;;;;7.55;2.75;;;;;;;;;;7374746;19;20074;-76
2023/06/02 13:06:00;;;;;;;5.03;2.60;;;;;;;;;;7374681;19;20074;-75
2023/06/02 13:08:26;;;;;;;7.55;3.08;;;;;;;;;;7367495;19;20021;-75
2023/06/02 13:10:54;;;;;;;6.78;3.00;;;;;;;;;;7389423;19;20006;-74
2023/06/02 13:13:20;;;;;;;8.38;2.90;;;;;;;;;;7368085;19;20043;-75
2023/06/02 13:15:46;;;;;;;8.77;2.72;;;;;;;;;;7367522;19;20014;-74
2023/06/02 13:18:11;;;;;;;11.07;2.78;;;;;;;;;;7363684;19;20014;-75
2023/06/02 13:20:37;;;;;;;6.95;2.45;;;;;;;;;;7367239;19;20469;-75
2023/06/02 13:23:02;;;;;;;7.05;2.80;;;;;;;;;;7366215;19;20007;-75
2023/06/02 13:25:28;;;;;;;10.52;3.30;;;;;;;;;;7388868;19;20045;-75
2023/06/02 13:27:53;;;;;;;10.38;2.90;;;;;;;;;;7363419;19;20007;-75
2023/06/02 13:30:20;;;;;;;8.75;2.90;;;;;;;;;;7367013;19;20354;-75
2023/06/02 13:32:46;;;;;;;9.65;3.13;;;;;;;;;;7368391;19;20367;-75
2023/06/02 13:35:11;;;;;;;8.80;2.92;;;;;;;;;;7372982;19;19998;-76
2023/06/02 13:37:36;;;;;;;11.93;3.08;;;;;;;;;;7396259;19;20544;-77
2023/06/02 13:40:03;;;;;;;9.30;2.75;;;;;;;;;;7380263;19;20017;-75
2023/06/02 13:42:29;;;;;;;6.60;2.85;;;;;;;;;;7378447;19;19998;-75
2023/06/02 13:44:54;;;;;;;5.65;2.75;;;;;;;;;;7374632;19;20013;-75
2023/06/02 13:47:20;;;;;;;8.10;2.75;;;;;;;;;;7366613;19;20010;-74
2023/06/02 13:49:45;;;;;;;7.90;3.00;;;;;;;;;;7387365;19;20014;-75
2023/06/02 13:52:10;;;;;;;11.15;3.00;;;;;;;;;;7366279;19;20106;-76
2023/06/02 13:54:36;;;;;;;10.80;2.80;;;;;;;;;;7367029;19;20032;-75
2023/06/02 13:57:02;;;;;;;9.75;2.95;;;;;;;;;;7366118;19;20006;-75
2023/06/02 13:59:28;;;;;;;11.73;3.00;;;;;;;;;;7367926;19;20014;-74
2023/06/02 14:01:54;;;;;;;6.10;2.85;;;;;;;;;;7396341;19;20369;-74
2023/06/02 14:04:19;;;;;;;9.65;2.80;;;;;;;;;;7369940;19;20018;-74
2023/06/02 14:06:44;;;;;;;7.07;2.88;;;;;;;;;;7373478;19;20078;-74
2023/06/02 14:09:10;;;;;;;7.20;2.65;;;;;;;;;;7373813;19;20010;-74
2023/06/02 14:11:38;;;;;;;8.80;2.97;;;;;;;;;;7374810;19;20395;-75
2023/06/02 14:14:07;;;;;;;6.90;2.78;;;;;;;;;;7372006;19;20369;-75
2023/06/02 14:16:32;;;;;;;9.63;2.85;;;;;;;;;;7399059;19;20011;-75
2023/06/02 14:18:58;;;;;;;11.32;3.00;;;;;;;;;;7382264;19;20062;-75
2023/06/02 14:21:26;;;;;;;4.75;2.85;;;;;;;;;;7386974;19;20047;-75
2023/06/02 14:23:51;;;;;;;7.82;3.22;;;;;;;;;;7388160;19;20002;-76
2023/06/02 14:26:17;;;;;;;12.13;3.20;;;;;;;;;;7388439;19;20021;-76
2023/06/02 14:28:43;;;;;;;7.68;2.83;;;;;;;;;;7408341;19;19990;-75
2023/06/02 14:31:08;;;;;;;10.18;2.78;;;;;;;;;;7384605;19;20003;-76
2023/06/02 14:33:34;;;;;;;7.75;3.05;;;;;;;;;;7380730;19;20002;-75
2023/06/02 14:35:59;;;;;;;13.38;4.47;;;;;;;;;;7376383;19;19999;-76
2023/06/02 14:38:24;;;;;;;12.65;5.32;;;;;;;;;;7374538;19;20002;-76
2023/06/02 14:40:50;;;;;;;11.43;3.63;;;;;;;;;;7397612;19;20019;-75